SAOC/RCU METAR and TAF weather

Enter ICAO airport designator
Station Type Date Time Source
SAOC METAR 2021/07/29 00:00 UTC NOAA

SAOC 290000Z 18004KT CAVOK 05/M03 Q1029


Station Type Date Time Source
SAOC Decoded METAR 2021/07/29 00:00 UTC NOAA

Rio Cuarto Aerodrome, Argentina (SAOC) 33-07S 064-14W 421M
Jul 28, 2021 - 08:00 PM EDT / 2021.07.29 0000 UTC
Wind: from the S (180 degrees) at 5 MPH (4 KT):0
Visibility: greater than 7 mile(s):0
Temperature: 41 F (5 C)
Dew Point: 26 F (-3 C)
Relative Humidity: 56%
Pressure (altimeter): 30.39 in. Hg (1029 hPa)
ob: SAOC 290000Z 18004KT CAVOK 05/M03 Q1029
cycle: 0

Station Type Date Time Source
SAOC TAF 2021/07/16 18:06 UTC NOAA

TAF SAOC 161700Z 1618/1718 32015KT CAVOK TX12/1718Z TN02/1711Z
BECMG 1700/1702 20025G45KT 7000 BKN040
BECMG 1706/1709 20020G30KT SCT040
BECMG 1716/1718 23015KT

Example: see airport list